Time;durP1;ratioP1;P1;durP2;ratioP2;P2;SDS_P1;SDS_P2;PMS_P1;PMS_P2;Temp;Humidity;BMP_temperature;BMP_pressure;BME280_temperature;BME280_humidity;BME280_pressure;Samples;Min_cycle;Max_cycle;Signal;HPM_P1;HPM_P2
2021/11/24 00:02:13;;;;;;;;;;;;;;;7.68;86.86;102975.44;5034429;28;19929;-69
2021/11/24 00:04:39;;;;;;;;;;;;;;;7.64;86.77;102977.84;5038763;28;19940;-69
2021/11/24 00:07:04;;;;;;;;;;;;;;;7.65;87.15;102980.53;5031982;28;19917;-68
2021/11/24 00:09:29;;;;;;;;;;;;;;;7.67;86.95;102976.25;5034802;28;19921;-69
2021/11/24 00:11:54;;;;;;;;;;;;;;;7.69;86.54;102981.56;5034586;28;19921;-70
2021/11/24 00:14:20;;;;;;;;;;;;;;;7.70;86.56;102972.91;5038195;28;19922;-69
2021/11/24 00:16:45;;;;;;;;;;;;;;;7.72;87.32;102972.13;5042030;28;20407;-68
2021/11/24 00:19:10;;;;;;;;;;;;;;;7.75;87.35;102969.66;5040702;28;19921;-69
2021/11/24 00:21:35;;;;;;;;;;;;;;;7.75;86.77;102961.81;5045361;28;19921;-69
2021/11/24 00:24:01;;;;;;;;;;;;;;;7.75;86.97;102964.41;5042439;28;19921;-70
2021/11/24 00:26:26;;;;;;;;;;;;;;;7.76;86.81;102960.06;5044593;28;19971;-68
2021/11/24 00:28:51;;;;;;;;;;;;;;;7.79;86.58;102965.44;5044164;28;19968;-69
2021/11/24 00:31:16;;;;;;;;;;;;;;;7.79;86.58;102961.09;5041724;28;19932;-69
2021/11/24 00:33:42;;;;;;;;;;;;;;;7.78;86.79;102956.69;5039650;28;19921;-69
2021/11/24 00:36:07;;;;;;;;;;;;;;;7.77;86.47;102962.75;5041723;28;20301;-69
2021/11/24 00:38:32;;;;;;;;;;;;;;;7.76;86.74;102955.72;5032708;28;19913;-69
2021/11/24 00:40:58;;;;;;;;;;;;;;;7.76;86.08;102950.50;5044010;28;20016;-69
2021/11/24 00:43:23;;;;;;;;;;;;;;;7.75;86.14;102956.56;5046994;28;19959;-69
2021/11/24 00:45:49;;;;;;;;;;;;;;;7.74;86.68;102951.25;5050634;28;19926;-69
2021/11/24 00:48:14;;;;;;;;;;;;;;;7.75;86.40;102951.34;5043551;28;20015;-69
2021/11/24 00:50:40;;;;;;;;;;;;;;;7.74;86.19;102949.53;5042592;28;19921;-69
2021/11/24 00:53:05;;;;;;;;;;;;;;;7.79;86.36;102955.88;5033873;28;19924;-69
2021/11/24 00:55:30;;;;;;;;;;;;;;;7.86;86.71;102953.50;5045577;28;19921;-69
2021/11/24 00:57:56;;;;;;;;;;;;;;;7.91;85.51;102952.00;5043952;28;19921;-70
2021/11/24 01:00:21;;;;;;;;;;;;;;;7.89;85.27;102941.44;5043972;28;19913;-68
2021/11/24 01:02:47;;;;;;;;;;;;;;;7.84;85.84;102944.69;5046190;28;19988;-69
2021/11/24 01:05:12;;;;;;;;;;;;;;;7.84;85.45;102945.59;5035217;28;19921;-68
2021/11/24 01:07:38;;;;;;;;;;;;;;;7.81;84.76;102942.84;5046981;28;19924;-69
2021/11/24 01:10:05;;;;;;;;;;;;;;;7.81;86.01;102946.34;5033721;28;19924;-69
2021/11/24 01:12:31;;;;;;;;;;;;;;;7.85;85.60;102942.16;5037828;28;19921;-68
2021/11/24 01:14:56;;;;;;;;;;;;;;;7.87;85.73;102932.63;5027500;28;19949;-69
2021/11/24 01:17:21;;;;;;;;;;;;;;;7.90;85.43;102930.16;5034299;28;19936;-69
2021/11/24 01:19:46;;;;;;;;;;;;;;;7.93;85.88;102924.16;5036021;28;20011;-69
2021/11/24 01:22:12;;;;;;;;;;;;;;;7.93;85.84;102922.41;5038458;28;19927;-69
2021/11/24 01:24:37;;;;;;;;;;;;;;;7.88;85.34;102918.75;5029049;28;19979;-68
2021/11/24 01:27:02;;;;;;;;;;;;;;;7.86;85.37;102916.88;5043693;28;19912;-69
2021/11/24 01:29:28;;;;;;;;;;;;;;;7.87;85.88;102913.44;5031538;28;19932;-69
2021/11/24 01:31:53;;;;;;;;;;;;;;;7.87;86.04;102918.66;5046012;28;19936;-69
2021/11/24 01:34:18;;;;;;;;;;;;;;;7.85;86.18;102921.22;5042278;28;19964;-69
2021/11/24 01:36:43;;;;;;;;;;;;;;;7.89;85.94;102917.00;5052286;28;19927;-69
2021/11/24 01:39:09;;;;;;;;;;;;;;;7.93;86.09;102921.53;5031853;28;20016;-70
2021/11/24 01:41:34;;;;;;;;;;;;;;;7.92;85.94;102911.88;5051660;28;19988;-69
2021/11/24 01:44:00;;;;;;;;;;;;;;;7.91;86.22;102910.09;5054296;28;19956;-69
2021/11/24 01:46:28;;;;;;;;;;;;;;;7.90;85.97;102905.69;5044864;28;19928;-69
2021/11/24 01:48:54;;;;;;;;;;;;;;;7.89;85.59;102907.41;5035822;28;20399;-68
2021/11/24 01:51:20;;;;;;;;;;;;;;;7.90;85.43;102908.31;5042842;28;19992;-69
2021/11/24 01:53:46;;;;;;;;;;;;;;;7.87;85.94;102902.97;5036105;28;19956;-69
2021/11/24 01:56:11;;;;;;;;;;;;;;;7.87;86.31;102901.22;5038468;28;19932;-69
2021/11/24 01:58:37;;;;;;;;;;;;;;;7.90;85.74;102900.44;5041821;28;20364;-69
2021/11/24 02:01:02;;;;;;;;;;;;;;;7.93;86.21;102900.59;5044612;28;19916;-68
2021/11/24 02:03:28;;;;;;;;;;;;;;;7.90;85.92;102897.84;5046413;28;19928;-69
2021/11/24 02:05:54;;;;;;;;;;;;;;;7.85;85.48;102895.03;5050235;28;19912;-69
2021/11/24 02:08:19;;;;;;;;;;;;;;;7.83;86.01;102896.69;5040065;28;19946;-68
2021/11/24 02:10:44;;;;;;;;;;;;;;;7.84;85.94;102890.63;5070118;28;20387;-69
2021/11/24 02:13:11;;;;;;;;;;;;;;;7.85;86.71;102887.19;5044283;28;19929;-70
2021/11/24 02:15:36;;;;;;;;;;;;;;;7.87;86.04;102882.03;5040240;28;19921;-69
2021/11/24 02:18:03;;;;;;;;;;;;;;;7.91;86.25;102890.06;5046954;28;19921;-69
2021/11/24 02:20:39;;;;;;;;;;;;;;;7.92;86.00;102883.09;5041392;28;19928;-69
2021/11/24 02:23:06;;;;;;;;;;;;;;;7.89;86.22;102875.13;5044066;28;19913;-69
2021/11/24 02:25:32;;;;;;;;;;;;;;;7.84;85.87;102869.69;5038276;28;19971;-70
2021/11/24 02:27:57;;;;;;;;;;;;;;;7.85;86.07;102863.63;5047994;28;19920;-69
2021/11/24 02:30:22;;;;;;;;;;;;;;;7.85;86.24;102860.13;5049526;28;20400;-69
2021/11/24 02:32:48;;;;;;;;;;;;;;;7.87;86.13;102867.19;5044087;28;19925;-69
2021/11/24 02:35:13;;;;;;;;;;;;;;;7.87;85.69;102855.84;5048625;28;19986;-70
2021/11/24 02:37:38;;;;;;;;;;;;;;;7.88;86.43;102858.53;5042008;28;20020;-69
2021/11/24 02:40:04;;;;;;;;;;;;;;;7.91;85.36;102850.78;5044783;28;19925;-69
2021/11/24 02:42:29;;;;;;;;;;;;;;;7.95;85.71;102844.84;5054126;28;19925;-69
2021/11/24 02:44:55;;;;;;;;;;;;;;;7.98;86.07;102841.47;5039691;28;20024;-70
2021/11/24 02:47:21;;;;;;;;;;;;;;;7.93;85.48;102836.03;5039749;28;19943;-68
2021/11/24 02:49:48;;;;;;;;;;;;;;;7.92;85.93;102835.97;5044649;28;19988;-69
2021/11/24 02:52:14;;;;;;;;;;;;;;;7.91;86.44;102834.19;5042965;28;19920;-70
2021/11/24 02:54:39;;;;;;;;;;;;;;;7.89;86.28;102823.66;5031932;28;19921;-70
2021/11/24 02:57:06;;;;;;;;;;;;;;;7.87;85.59;102817.47;5040596;28;19920;-70
2021/11/24 02:59:32;;;;;;;;;;;;;;;7.89;86.19;102820.16;5039846;28;19918;-69
2021/11/24 03:01:57;;;;;;;;;;;;;;;7.86;85.67;102813.06;5048624;28;19957;-69
2021/11/24 03:04:29;;;;;;;;;;;;;;;7.87;86.07;102814.84;5048972;28;19917;-69
2021/11/24 03:06:59;;;;;;;;;;;;;;;7.86;85.91;102813.06;5041140;28;19917;-69
2021/11/24 03:09:24;;;;;;;;;;;;;;;7.86;86.65;102813.06;5037986;28;19917;-70
2021/11/24 03:11:50;;;;;;;;;;;;;;;7.86;86.52;102801.69;5044788;28;19922;-70
2021/11/24 03:14:15;;;;;;;;;;;;;;;7.89;86.77;102796.59;5039315;28;19929;-70
2021/11/24 03:16:40;;;;;;;;;;;;;;;7.93;86.13;102796.78;5043002;28;19928;-70
2021/11/24 03:19:05;;;;;;;;;;;;;;;7.93;85.26;102788.03;5043482;28;19925;-69
2021/11/24 03:21:31;;;;;;;;;;;;;;;7.93;85.56;102788.03;5053865;28;19926;-69
2021/11/24 03:23:56;;;;;;;;;;;;;;;7.91;85.38;102776.63;5031126;28;20633;-69
2021/11/24 03:26:21;;;;;;;;;;;;;;;7.88;85.62;102769.53;5047359;28;19967;-68
2021/11/24 03:28:47;;;;;;;;;;;;;;;7.88;85.82;102771.25;5054496;28;19973;-69
2021/11/24 03:31:12;;;;;;;;;;;;;;;7.88;85.79;102773.84;5045540;28;19925;-69
2021/11/24 03:33:37;;;;;;;;;;;;;;;7.89;85.73;102771.31;5038640;28;19932;-68
2021/11/24 03:36:02;;;;;;;;;;;;;;;7.90;85.42;102764.34;5040514;28;19975;-69
2021/11/24 03:38:28;;;;;;;;;;;;;;;7.92;85.26;102762.66;5031271;28;19921;-69
2021/11/24 03:40:53;;;;;;;;;;;;;;;7.91;85.43;102761.78;5040997;28;20024;-69
2021/11/24 03:43:18;;;;;;;;;;;;;;;7.90;85.05;102748.63;5045257;28;20395;-70
2021/11/24 03:45:43;;;;;;;;;;;;;;;7.87;85.80;102743.31;5044261;28;19947;-69
2021/11/24 03:48:09;;;;;;;;;;;;;;;7.87;85.21;102740.69;5043886;28;19921;-69
2021/11/24 03:50:35;;;;;;;;;;;;;;;7.90;85.14;102746.03;5057157;28;19935;-69
2021/11/24 03:53:00;;;;;;;;;;;;;;;7.93;85.34;102743.53;5047439;28;19921;-69
2021/11/24 03:55:25;;;;;;;;;;;;;;;7.93;85.21;102740.91;5053711;28;19922;-69
2021/11/24 03:57:51;;;;;;;;;;;;;;;7.96;85.12;102744.56;5035708;28;19980;-69
2021/11/24 04:00:18;;;;;;;;;;;;;;;7.97;85.49;102743.69;5047165;28;19956;-70
2021/11/24 04:02:43;;;;;;;;;;;;;;;8.01;85.78;102744.72;5040754;28;19917;-69
2021/11/24 04:05:10;;;;;;;;;;;;;;;7.99;85.07;102736.78;5044508;28;19932;-69
2021/11/24 04:07:36;;;;;;;;;;;;;;;8.02;85.30;102743.00;5046855;28;19918;-69
2021/11/24 04:10:01;;;;;;;;;;;;;;;8.03;85.10;102739.53;5038072;28;19929;-69
2021/11/24 04:12:26;;;;;;;;;;;;;;;8.03;84.97;102737.81;5032422;28;19925;-69
2021/11/24 04:14:51;;;;;;;;;;;;;;;8.07;84.69;102736.22;5050468;28;19984;-69
2021/11/24 04:17:17;;;;;;;;;;;;;;;8.10;84.96;102731.09;5047151;28;20899;-70
2021/11/24 04:19:42;;;;;;;;;;;;;;;8.06;85.60;102732.72;5044822;28;20336;-70
2021/11/24 04:22:07;;;;;;;;;;;;;;;7.99;85.22;102728.94;5042672;28;19968;-69
2021/11/24 04:24:33;;;;;;;;;;;;;;;7.97;85.35;102727.09;5032608;28;19922;-70
2021/11/24 04:26:59;;;;;;;;;;;;;;;7.92;85.92;102715.56;5037201;28;20358;-69
2021/11/24 04:29:24;;;;;;;;;;;;;;;7.91;85.65;102714.66;5042859;28;19917;-69
2021/11/24 04:31:49;;;;;;;;;;;;;;;7.88;86.00;102711.03;5046648;28;19921;-70
2021/11/24 04:34:15;;;;;;;;;;;;;;;7.85;86.37;102714.44;5049740;28;19917;-69
2021/11/24 04:36:40;;;;;;;;;;;;;;;7.84;86.62;102704.78;5040857;28;19925;-69
2021/11/24 04:39:05;;;;;;;;;;;;;;;7.81;86.30;102704.69;5035077;28;19960;-69
2021/11/24 04:41:31;;;;;;;;;;;;;;;7.78;86.36;102702.81;5034442;28;20296;-68
2021/11/24 04:43:56;;;;;;;;;;;;;;;7.79;86.03;102703.75;5047199;28;19928;-69
2021/11/24 04:46:22;;;;;;;;;;;;;;;7.85;86.92;102705.72;5058108;28;19919;-69
2021/11/24 04:48:47;;;;;;;;;;;;;;;7.86;85.79;102699.63;5046600;28;20024;-69
2021/11/24 04:51:12;;;;;;;;;;;;;;;7.88;85.60;102693.63;5043734;28;19948;-70
2021/11/24 04:53:38;;;;;;;;;;;;;;;7.89;85.62;102689.28;5028060;28;19917;-69
2021/11/24 04:56:03;;;;;;;;;;;;;;;7.91;86.02;102688.50;5047228;28;20281;-70
2021/11/24 04:58:29;;;;;;;;;;;;;;;7.97;85.86;102682.59;5038517;28;19924;-69
2021/11/24 05:00:54;;;;;;;;;;;;;;;7.99;85.91;102686.16;5055763;28;19916;-69
2021/11/24 05:03:19;;;;;;;;;;;;;;;7.98;85.76;102684.41;5048074;28;19917;-69
2021/11/24 05:05:45;;;;;;;;;;;;;;;7.98;85.78;102669.59;5052295;28;19940;-69
2021/11/24 05:08:10;;;;;;;;;;;;;;;7.99;85.98;102675.69;5047006;28;19926;-70
2021/11/24 05:10:35;;;;;;;;;;;;;;;7.95;86.09;102679.91;5039667;28;19922;-69
2021/11/24 05:13:00;;;;;;;;;;;;;;;7.92;86.05;102674.59;5047317;28;20028;-70
2021/11/24 05:15:29;;;;;;;;;;;;;;;7.93;85.88;102668.50;5044958;28;19917;-70
2021/11/24 05:18:01;;;;;;;;;;;;;;;7.92;86.04;102666.75;5044461;28;19924;-70
2021/11/24 05:20:29;;;;;;;;;;;;;;;7.92;86.66;102668.44;5045573;28;19924;-69
2021/11/24 05:22:56;;;;;;;;;;;;;;;7.87;86.49;102660.44;5044861;28;19929;-70
2021/11/24 05:25:21;;;;;;;;;;;;;;;7.85;86.09;102655.97;5047142;28;19967;-70
2021/11/24 05:27:46;;;;;;;;;;;;;;;7.83;86.27;102655.91;5041801;28;19920;-70
2021/11/24 05:30:12;;;;;;;;;;;;;;;7.84;86.37;102655.06;5043002;28;20286;-69
2021/11/24 05:32:38;;;;;;;;;;;;;;;7.85;85.24;102659.47;5034804;28;19925;-69
2021/11/24 05:35:04;;;;;;;;;;;;;;;7.89;86.17;102666.59;5035773;28;19921;-71
2021/11/24 05:37:29;;;;;;;;;;;;;;;7.91;85.41;102659.69;5034256;28;19994;-70
2021/11/24 05:39:54;;;;;;;;;;;;;;;7.94;85.43;102665.06;5037394;28;20339;-70
2021/11/24 05:42:20;;;;;;;;;;;;;;;7.94;85.46;102665.06;5041857;28;19917;-70
2021/11/24 05:44:48;;;;;;;;;;;;;;;7.92;85.51;102674.59;5041360;28;19929;-69
2021/11/24 05:47:49;;;;;;;;;;;;;;;7.91;85.10;102667.56;5041056;28;19927;-70
2021/11/24 05:49:59;;;;;;;;;;;;;;;7.91;84.73;102667.56;5037592;28;19956;-70
2021/11/24 05:52:24;;;;;;;;;;;;;;;7.90;85.11;102662.25;5041370;28;19932;-69
2021/11/24 05:54:49;;;;;;;;;;;;;;;7.90;85.42;102659.63;5032334;28;19917;-69
2021/11/24 05:57:16;;;;;;;;;;;;;;;7.88;85.13;102657.00;5035828;28;19928;-70
2021/11/24 05:59:41;;;;;;;;;;;;;;;7.91;85.63;102658.81;5034474;28;19922;-69
2021/11/24 06:02:07;;;;;;;;;;;;;;;7.95;85.35;102650.25;5035538;28;19928;-69
2021/11/24 06:04:32;;;;;;;;;;;;;;;7.94;85.10;102644.13;5038070;28;20737;-69
2021/11/24 06:06:57;;;;;;;;;;;;;;;7.94;85.31;102644.13;5043868;28;19935;-69
2021/11/24 06:09:22;;;;;;;;;;;;;;;7.95;84.70;102640.66;5039189;28;19932;-69
2021/11/24 06:11:47;;;;;;;;;;;;;;;7.92;85.18;102637.03;5048832;28;19928;-69
2021/11/24 06:14:13;;;;;;;;;;;;;;;7.92;85.71;102626.56;5056339;28;19925;-69
2021/11/24 06:16:38;;;;;;;;;;;;;;;7.92;85.63;102634.41;5037961;28;20004;-70
2021/11/24 06:19:03;;;;;;;;;;;;;;;7.91;85.68;102630.91;5047467;28;19925;-70
2021/11/24 06:21:28;;;;;;;;;;;;;;;7.89;85.71;102629.09;5048869;28;20391;-69
2021/11/24 06:23:54;;;;;;;;;;;;;;;7.88;85.69;102624.66;5041351;28;19940;-69
2021/11/24 06:26:21;;;;;;;;;;;;;;;7.87;86.01;102631.63;5036501;28;19922;-70
2021/11/24 06:28:46;;;;;;;;;;;;;;;7.90;86.37;102626.53;5039472;28;19972;-70
2021/11/24 06:31:11;;;;;;;;;;;;;;;7.95;85.48;102631.91;5046867;28;19923;-72
2021/11/24 06:33:37;;;;;;;;;;;;;;;7.92;86.13;102622.25;5043474;28;19920;-73
2021/11/24 06:36:02;;;;;;;;;;;;;;;7.92;86.07;102622.25;5047470;28;19978;-75
2021/11/24 06:38:27;;;;;;;;;;;;;;;7.93;85.72;102621.38;5044869;28;20078;-72
2021/11/24 06:40:52;;;;;;;;;;;;;;;7.91;85.05;102619.56;5043281;28;19931;-73
2021/11/24 06:43:18;;;;;;;;;;;;;;;7.89;85.60;102613.38;5049412;28;19931;-73
2021/11/24 06:45:44;;;;;;;;;;;;;;;7.91;86.01;102619.56;5047013;28;19917;-73
2021/11/24 06:48:09;;;;;;;;;;;;;;;7.91;86.45;102616.94;5042728;28;19925;-73
2021/11/24 06:50:35;;;;;;;;;;;;;;;7.93;86.08;102610.91;5043533;28;19995;-72
2021/11/24 06:53:00;;;;;;;;;;;;;;;7.95;86.36;102606.63;5036578;28;19916;-72
2021/11/24 06:55:26;;;;;;;;;;;;;;;7.96;85.94;102610.16;5041355;28;19947;-73
2021/11/24 06:57:51;;;;;;;;;;;;;;;7.95;85.72;102613.59;5041819;28;19959;-73
2021/11/24 07:00:17;;;;;;;;;;;;;;;7.89;86.01;102608.13;5041971;28;20004;-73
2021/11/24 07:02:42;;;;;;;;;;;;;;;7.88;86.14;102601.09;5041028;28;19934;-74
2021/11/24 07:05:09;;;;;;;;;;;;;;;7.88;86.16;102601.09;5040904;28;19922;-73
2021/11/24 07:07:34;;;;;;;;;;;;;;;7.88;86.25;102596.78;5042703;28;19918;-74
2021/11/24 07:09:59;;;;;;;;;;;;;;;7.87;86.17;102604.56;5040089;28;19928;-73
2021/11/24 07:12:25;;;;;;;;;;;;;;;7.88;86.34;102606.34;5039899;28;20051;-73
2021/11/24 07:14:55;;;;;;;;;;;;;;;7.88;86.18;102604.63;5037675;28;19937;-73
2021/11/24 07:17:21;;;;;;;;;;;;;;;7.90;86.53;102602.97;5049885;28;19925;-73
2021/11/24 07:19:46;;;;;;;;;;;;;;;7.97;86.21;102598.84;5045739;28;19921;-74
2021/11/24 07:22:12;;;;;;;;;;;;;;;7.98;86.03;102604.13;5039791;28;19980;-73
2021/11/24 07:24:37;;;;;;;;;;;;;;;7.98;86.14;102603.25;5047368;28;19921;-73
2021/11/24 07:27:02;;;;;;;;;;;;;;;7.97;85.54;102610.19;5048669;28;19990;-72
2021/11/24 07:29:28;;;;;;;;;;;;;;;7.96;85.74;102603.19;5046648;28;19925;-73
2021/11/24 07:31:53;;;;;;;;;;;;;;;7.94;85.76;102606.56;5051537;28;20400;-73
2021/11/24 07:34:18;;;;;;;;;;;;;;;7.92;86.01;102601.31;5046706;28;19979;-73
2021/11/24 07:36:44;;;;;;;;;;;;;;;7.93;86.09;102605.69;5049475;28;19917;-72
2021/11/24 07:39:09;;;;;;;;;;;;;;;7.94;85.86;102604.88;5042568;28;20340;-72
2021/11/24 07:41:35;;;;;;;;;;;;;;;7.98;86.38;102603.25;5042812;28;19940;-72
2021/11/24 07:44:00;;;;;;;;;;;;;;;8.00;85.46;102596.34;5053538;28;19925;-70
2021/11/24 07:46:25;;;;;;;;;;;;;;;8.03;85.61;102600.78;5035399;28;19971;-70
2021/11/24 07:48:50;;;;;;;;;;;;;;;8.07;85.22;102602.69;5042019;28;19922;-70
2021/11/24 07:51:19;;;;;;;;;;;;;;;8.08;85.87;102592.28;5034882;28;19928;-70
2021/11/24 07:53:45;;;;;;;;;;;;;;;8.10;85.41;102590.59;5032848;28;19925;-71
2021/11/24 07:56:10;;;;;;;;;;;;;;;8.13;86.18;102595.97;5046598;28;20377;-70
2021/11/24 07:58:35;;;;;;;;;;;;;;;8.13;85.44;102589.84;5049460;28;19937;-69
2021/11/24 08:01:00;;;;;;;;;;;;;;;8.11;84.97;102584.53;5045805;28;19978;-69
2021/11/24 08:03:26;;;;;;;;;;;;;;;8.11;85.19;102587.16;5053785;28;20016;-71
2021/11/24 08:05:51;;;;;;;;;;;;;;;8.11;85.87;102576.69;5048423;28;19925;-70
2021/11/24 08:08:16;;;;;;;;;;;;;;;8.10;85.57;102581.84;5053278;28;19929;-69
2021/11/24 08:10:41;;;;;;;;;;;;;;;8.10;85.34;102577.50;5039831;28;19928;-70
2021/11/24 08:13:07;;;;;;;;;;;;;;;8.11;85.46;102571.44;5041851;28;19973;-66
2021/11/24 08:15:32;;;;;;;;;;;;;;;8.13;85.09;102567.16;5047349;28;19924;-66
2021/11/24 08:17:57;;;;;;;;;;;;;;;8.15;85.39;102565.47;5044683;28;20184;-67
2021/11/24 08:20:22;;;;;;;;;;;;;;;8.20;85.70;102568.25;5046003;28;19931;-66
2021/11/24 08:22:48;;;;;;;;;;;;;;;8.22;85.00;102563.06;5038519;28;19937;-67
2021/11/24 08:25:13;;;;;;;;;;;;;;;8.26;84.36;102554.47;5046096;28;19917;-67
2021/11/24 08:27:38;;;;;;;;;;;;;;;8.28;83.97;102555.41;5047005;28;19932;-67
2021/11/24 08:30:05;;;;;;;;;;;;;;;8.29;84.23;102562.47;5040071;28;19920;-67
2021/11/24 08:32:30;;;;;;;;;;;;;;;8.29;84.07;102554.59;5039000;28;19925;-66
2021/11/24 08:34:55;;;;;;;;;;;;;;;8.33;83.75;102546.00;5039080;28;19917;-67
2021/11/24 08:37:21;;;;;;;;;;;;;;;8.32;83.96;102544.25;5044776;28;19913;-67
2021/11/24 08:39:48;;;;;;;;;;;;;;;8.33;83.07;102546.00;5037519;28;19921;-66
2021/11/24 08:42:13;;;;;;;;;;;;;;;8.35;83.29;102544.31;5049726;28;19912;-66
2021/11/24 08:44:39;;;;;;;;;;;;;;;8.34;82.55;102538.22;5049627;28;19931;-66
2021/11/24 08:47:04;;;;;;;;;;;;;;;8.36;82.33;102543.50;5040938;28;19956;-66
2021/11/24 08:49:29;;;;;;;;;;;;;;;8.37;82.74;102540.94;5045915;28;19921;-67
2021/11/24 08:51:54;;;;;;;;;;;;;;;8.37;80.97;102540.03;5066395;28;20015;-67
2021/11/24 08:54:20;;;;;;;;;;;;;;;8.41;81.49;102531.44;5057253;28;19928;-67
2021/11/24 08:56:45;;;;;;;;;;;;;;;8.43;81.89;102527.19;5042859;28;19957;-67
2021/11/24 08:59:10;;;;;;;;;;;;;;;8.46;82.34;102531.66;5039426;28;19929;-66
2021/11/24 09:01:36;;;;;;;;;;;;;;;8.47;82.33;102523.84;5046146;28;20379;-66
2021/11/24 09:04:02;;;;;;;;;;;;;;;8.50;82.52;102529.16;5054885;28;19927;-66
2021/11/24 09:06:27;;;;;;;;;;;;;;;8.52;82.27;102519.63;5074144;28;20012;-66
2021/11/24 09:08:53;;;;;;;;;;;;;;;8.58;82.22;102525.09;5032321;28;19928;-66
2021/11/24 09:11:18;;;;;;;;;;;;;;;8.63;80.89;102521.72;5073255;28;19932;-66
2021/11/24 09:13:44;;;;;;;;;;;;;;;8.67;80.76;102521.88;5075284;28;19928;-67
2021/11/24 09:16:09;;;;;;;;;;;;;;;8.69;79.55;102512.31;5035433;28;19916;-67
2021/11/24 09:18:34;;;;;;;;;;;;;;;8.73;77.88;102514.22;5045507;28;19921;-67
2021/11/24 09:21:00;;;;;;;;;;;;;;;8.78;78.67;102510.00;5034924;28;19928;-66
2021/11/24 09:23:26;;;;;;;;;;;;;;;8.81;77.11;102517.09;5046847;28;19931;-66
2021/11/24 09:26:40;;;;;;;;;;;;;;;8.81;76.00;102511.84;5034104;28;19944;-67
2021/11/24 09:28:40;;;;;;;;;;;;;;;8.88;76.63;102508.56;5036495;28;19963;-67
2021/11/24 09:31:05;;;;;;;;;;;;;;;8.91;76.11;102498.19;5089710;28;19921;-67
2021/11/24 09:33:31;;;;;;;;;;;;;;;8.95;75.67;102497.44;5030598;28;19957;-67
2021/11/24 09:35:56;;;;;;;;;;;;;;;9.06;74.90;102496.91;5043973;28;19962;-67
2021/11/24 09:38:22;;;;;;;;;;;;;;;9.05;75.24;102497.72;5047957;28;19956;-66
2021/11/24 09:40:48;;;;;;;;;;;;;;;9.05;73.22;102492.47;5042744;28;20300;-66
2021/11/24 09:43:16;;;;;;;;;;;;;;;9.07;73.85;102489.06;5044919;28;19917;-67
2021/11/24 09:45:44;;;;;;;;;;;;;;;9.11;74.75;102487.41;5044050;28;19920;-67
2021/11/24 09:48:09;;;;;;;;;;;;;;;9.11;73.70;102488.34;5045042;28;19924;-67
2021/11/24 09:50:36;;;;;;;;;;;;;;;9.13;73.37;102488.34;5054344;28;20017;-67
2021/11/24 09:53:02;;;;;;;;;;;;;;;9.15;74.28;102492.81;5033257;28;19928;-67
2021/11/24 09:55:29;;;;;;;;;;;;;;;9.16;74.16;102488.47;5052964;28;19948;-67
2021/11/24 09:57:55;;;;;;;;;;;;;;;9.13;74.03;102481.41;5042965;28;19947;-67
2021/11/24 10:00:21;;;;;;;;;;;;;;;9.13;74.08;102486.66;5042293;28;19978;-67
2021/11/24 10:02:46;;;;;;;;;;;;;;;9.17;73.88;102485.88;5034290;28;19917;-66
2021/11/24 10:05:12;;;;;;;;;;;;;;;9.16;74.40;102476.22;5044758;28;19924;-67
2021/11/24 10:07:39;;;;;;;;;;;;;;;9.12;74.22;102481.34;5051035;28;20099;-67
2021/11/24 10:10:04;;;;;;;;;;;;;;;9.10;75.20;102480.41;5043619;28;19921;-66
2021/11/24 10:12:30;;;;;;;;;;;;;;;9.10;74.77;102486.53;5040007;28;20063;-67
2021/11/24 10:14:55;;;;;;;;;;;;;;;9.13;74.95;102481.41;5058202;28;19920;-67
2021/11/24 10:17:22;;;;;;;;;;;;;;;9.13;74.54;102475.25;5052934;28;19952;-66
2021/11/24 10:20:17;;;;;;;;;;;;;;;9.15;74.32;102468.34;5042907;28;19917;-66
2021/11/24 10:22:42;;;;;;;;;;;;;;;9.10;74.75;102455.06;5043034;28;19921;-64
2021/11/24 10:25:15;;;;;;;;;;;;;;;9.09;75.67;102452.41;5050502;28;19945;-64
2021/11/24 10:27:43;;;;;;;;;;;;;;;9.13;74.75;102452.56;5044041;28;19952;-64
2021/11/24 10:30:09;;;;;;;;;;;;;;;9.16;75.24;102444.75;5048449;28;19940;-64
2021/11/24 10:32:34;;;;;;;;;;;;;;;9.23;73.53;102440.59;5046390;28;19986;-64
2021/11/24 10:35:00;;;;;;;;;;;;;;;9.22;72.67;102436.19;5045181;28;19924;-64
2021/11/24 10:37:25;;;;;;;;;;;;;;;9.19;73.07;102428.25;5043235;28;20388;-64
2021/11/24 10:39:57;;;;;;;;;;;;;;;9.19;73.98;102428.25;5041562;28;19921;-64
2021/11/24 10:42:29;;;;;;;;;;;;;;;9.24;73.23;102420.50;5041228;28;19923;-64
2021/11/24 10:44:59;;;;;;;;;;;;;;;9.27;72.83;102416.22;5045589;28;19920;-64
2021/11/24 10:47:26;;;;;;;;;;;;;;;9.28;73.23;102412.78;5041535;28;19924;-63
2021/11/24 10:49:59;;;;;;;;;;;;;;;9.30;73.41;102410.16;5038374;28;19914;-64
2021/11/24 10:52:32;;;;;;;;;;;;;;;9.37;73.34;102404.25;5044620;28;19920;-62
2021/11/24 10:55:03;;;;;;;;;;;;;;;9.39;72.45;102397.31;5045091;28;19971;-64
2021/11/24 10:57:29;;;;;;;;;;;;;;;9.42;72.56;102393.91;5042470;28;19984;-64
2021/11/24 10:59:59;;;;;;;;;;;;;;;9.36;71.76;102384.13;5045953;28;19932;-64
2021/11/24 11:02:24;;;;;;;;;;;;;;;9.41;72.88;102381.63;5043836;28;20364;-64
2021/11/24 11:05:13;;;;;;;;;;;;;;;9.42;72.25;102371.19;5036174;28;19932;-64
2021/11/24 11:07:39;;;;;;;;;;;;;;;9.49;72.27;102365.25;5039924;28;19917;-65
2021/11/24 11:10:09;;;;;;;;;;;;;;;9.47;71.13;102364.31;5037118;28;19929;-64
2021/11/24 11:12:36;;;;;;;;;;;;;;;9.52;71.50;102359.19;5049540;28;19921;-64
2021/11/24 11:15:11;;;;;;;;;;;;;;;9.55;71.14;102352.28;5043605;28;19984;-64
2021/11/24 11:17:54;;;;;;;;;;;;;;;9.67;71.29;102345.59;5040617;28;19913;-64
2021/11/24 11:20:21;;;;;;;;;;;;;;;9.64;70.30;102340.25;5033376;28;19923;-64
2021/11/24 11:23:04;;;;;;;;;;;;;;;9.72;70.39;102339.59;5037697;28;19920;-64
2021/11/24 11:25:29;;;;;;;;;;;;;;;9.80;68.44;102323.16;5043381;28;19928;-63
2021/11/24 11:27:54;;;;;;;;;;;;;;;9.74;68.92;102327.41;5040286;28;19921;-64
2021/11/24 11:30:20;;;;;;;;;;;;;;;9.72;68.01;102321.25;5041172;28;19931;-64
2021/11/24 11:32:47;;;;;;;;;;;;;;;9.71;69.15;102316.81;5042786;28;19959;-63
2021/11/24 11:35:12;;;;;;;;;;;;;;;9.75;68.29;102297.69;5047022;28;19917;-64
2021/11/24 11:37:37;;;;;;;;;;;;;;;9.78;68.37;102299.50;5036904;28;19916;-64
2021/11/24 11:40:03;;;;;;;;;;;;;;;9.78;68.45;102293.38;5042842;28;19917;-63
2021/11/24 11:42:28;;;;;;;;;;;;;;;9.73;67.09;102286.28;5041350;28;19948;-65
2021/11/24 11:44:54;;;;;;;;;;;;;;;9.62;67.30;102281.59;5041210;28;19974;-65
2021/11/24 11:47:38;;;;;;;;;;;;;;;9.68;67.69;102281.75;5037771;28;19921;-63
2021/11/24 11:50:03;;;;;;;;;;;;;;;9.67;66.68;102285.22;5041742;28;19920;-64
2021/11/24 11:52:28;;;;;;;;;;;;;;;9.62;66.43;102274.63;5034437;28;19922;-63
2021/11/24 11:54:54;;;;;;;;;;;;;;;9.60;67.50;102268.41;5063178;28;19991;-63
2021/11/24 11:57:20;;;;;;;;;;;;;;;9.69;66.58;102273.03;5035912;28;19925;-64
2021/11/24 11:59:58;;;;;;;;;;;;;;;9.74;66.60;102260.91;5029769;28;20333;-64
2021/11/24 12:02:24;;;;;;;;;;;;;;;9.70;66.28;102265.19;5038754;28;19917;-63
2021/11/24 12:04:50;;;;;;;;;;;;;;;9.73;67.04;102259.13;5040984;28;19917;-64
2021/11/24 12:07:20;;;;;;;;;;;;;;;9.76;66.92;102257.47;5038820;28;19929;-64
2021/11/24 12:09:54;;;;;;;;;;;;;;;9.73;66.80;102265.28;5048862;28;20017;-64
2021/11/24 12:12:35;;;;;;;;;;;;;;;9.73;67.30;102261.75;5053314;28;19924;-64
2021/11/24 12:15:16;;;;;;;;;;;;;;;9.74;67.50;102259.16;5044652;28;19917;-64
2021/11/24 12:17:49;;;;;;;;;;;;;;;9.70;67.20;102254.69;5048055;28;20269;-64
2021/11/24 12:20:15;;;;;;;;;;;;;;;9.66;66.81;102246.69;5027646;28;19913;-64
2021/11/24 12:22:43;;;;;;;;;;;;;;;9.64;68.13;102237.88;5029171;28;20613;-63
2021/11/24 12:25:30;;;;;;;;;;;;;;;9.75;65.55;102232.06;5042643;28;19924;-64
2021/11/24 12:28:01;;;;;;;;;;;;;;;9.67;66.71;102219.59;5046441;28;19940;-64
2021/11/24 12:33:01;;;;;;;;;;;;;;;9.66;67.45;102213.47;5037531;28;19916;-64
2021/11/24 12:35:26;;;;;;;;;;;;;;;9.67;66.89;102211.72;5057433;28;19928;-65
2021/11/24 12:37:54;;;;;;;;;;;;;;;9.60;67.09;102209.81;5047533;28;19921;-63
2021/11/24 12:40:36;;;;;;;;;;;;;;;9.54;67.71;102200.94;5040748;28;19921;-63
2021/11/24 12:43:16;;;;;;;;;;;;;;;9.60;67.39;102199.31;5040401;28;19923;-64
2021/11/24 12:45:59;;;;;;;;;;;;;;;9.57;66.88;102197.50;5050104;28;19924;-63
2021/11/24 12:48:32;;;;;;;;;;;;;;;9.55;67.19;102194.84;5030423;28;19928;-64